AEE175 LGSR-LGAV
Flight info
| Callsign | AEE175 |
|---|---|
| Flight time | 0h 37m |
| Altitude | 18000 |
| Route | NETIS M601 MIL Y144 BADEL |
| Aircraft | A320/M-SDE3FGHIRWY/LB1 |
Departure
| Time | 2026-05-09 17:43 |
|---|---|
| Airport | Santorini International Airport (LGSR) |
Arrival
| Time | 2026-05-09 18:20 |
|---|---|
| Airport | Athens Eleftherios Venizelos International Airport (LGAV) |
| Time | Latitude | Longitude | Altitude | Speed | Heading |
|---|---|---|---|---|---|
| 2026-05-09 17:11 | 36.40350 | 25.47381 | 118 ft | 0 kts | 249° |
| 2026-05-09 17:32 | 36.40370 | 25.47417 | 114 ft | 0 kts | 160° |
| 2026-05-09 17:36 | 36.40357 | 25.47423 | 115 ft | 5 kts | 160° |
| 2026-05-09 17:36 | 36.40309 | 25.47445 | 112 ft | 10 kts | 160° |
| 2026-05-09 17:36 | 36.40226 | 25.47489 | 112 ft | 16 kts | 160° |
| 2026-05-09 17:37 | 36.40134 | 25.47549 | 109 ft | 13 kts | 114° |
| 2026-05-09 17:37 | 36.40103 | 25.47659 | 107 ft | 16 kts | 148° |
| 2026-05-09 17:37 | 36.39980 | 25.47718 | 102 ft | 22 kts | 159° |
| 2026-05-09 17:37 | 36.39821 | 25.47795 | 96 ft | 27 kts | 158° |
| 2026-05-09 17:38 | 36.39630 | 25.47885 | 90 ft | 30 kts | 160° |
| 2026-05-09 17:38 | 36.39456 | 25.47965 | 85 ft | 22 kts | 160° |
| 2026-05-09 17:38 | 36.39292 | 25.48039 | 71 ft | 28 kts | 160° |
| 2026-05-09 17:39 | 36.39090 | 25.48135 | 64 ft | 0 kts | 159° |
| 2026-05-09 17:39 | 36.39074 | 25.48142 | 63 ft | 5 kts | 159° |
| 2026-05-09 17:39 | 36.39025 | 25.48168 | 63 ft | 5 kts | 147° |
| 2026-05-09 17:39 | 36.39005 | 25.48220 | 61 ft | 9 kts | 81° |
| 2026-05-09 17:40 | 36.39008 | 25.48234 | 62 ft | 0 kts | 71° |
| 2026-05-09 17:41 | 36.39009 | 25.48235 | 62 ft | 1 kts | 71° |
| 2026-05-09 17:41 | 36.39015 | 25.48257 | 58 ft | 6 kts | 70° |
| 2026-05-09 17:41 | 36.39040 | 25.48317 | 63 ft | 5 kts | 22° |
| 2026-05-09 17:42 | 36.39071 | 25.48311 | 57 ft | 0 kts | 341° |
| 2026-05-09 17:42 | 36.39075 | 25.48309 | 58 ft | 11 kts | 341° |
| 2026-05-09 17:42 | 36.39473 | 25.48126 | 80 ft | 107 kts | 339° |
| 2026-05-09 17:42 | 36.40399 | 25.47691 | 178 ft | 169 kts | 339° |
| 2026-05-09 17:43 | 36.41556 | 25.47180 | 967 ft | 180 kts | 342° |
| 2026-05-09 17:43 | 36.42772 | 25.46790 | 2011 ft | 183 kts | 343° |
| 2026-05-09 17:43 | 36.44091 | 25.46422 | 2742 ft | 204 kts | 344° |
| 2026-05-09 17:43 | 36.45543 | 25.46025 | 3229 ft | 221 kts | 343° |
| 2026-05-09 17:44 | 36.47070 | 25.45605 | 3813 ft | 229 kts | 343° |
| 2026-05-09 17:44 | 36.48631 | 25.45175 | 3967 ft | 230 kts | 343° |
| 2026-05-09 17:44 | 36.50191 | 25.44742 | 4003 ft | 229 kts | 343° |
| 2026-05-09 17:44 | 36.51684 | 25.44120 | 4009 ft | 223 kts | 323° |
| 2026-05-09 17:45 | 36.52729 | 25.42780 | 4007 ft | 214 kts | 294° |
| 2026-05-09 17:45 | 36.53108 | 25.41033 | 4009 ft | 209 kts | 268° |
| 2026-05-09 17:45 | 36.52939 | 25.39229 | 4277 ft | 214 kts | 261° |
| 2026-05-09 17:45 | 36.52739 | 25.37439 | 5229 ft | 211 kts | 261° |
| 2026-05-09 17:46 | 36.52544 | 25.35636 | 6147 ft | 211 kts | 261° |
| 2026-05-09 17:46 | 36.52347 | 25.33799 | 6986 ft | 213 kts | 262° |
| 2026-05-09 17:46 | 36.52152 | 25.31968 | 7806 ft | 215 kts | 262° |
| 2026-05-09 17:46 | 36.51954 | 25.30118 | 8643 ft | 217 kts | 263° |
| 2026-05-09 17:47 | 36.51817 | 25.28248 | 9476 ft | 219 kts | 273° |
| 2026-05-09 17:47 | 36.52114 | 25.26362 | 10072 ft | 233 kts | 290° |
| 2026-05-09 17:47 | 36.52997 | 25.24541 | 10384 ft | 260 kts | 305° |
| 2026-05-09 17:47 | 36.54158 | 25.22683 | 10662 ft | 284 kts | 305° |
| 2026-05-09 17:48 | 36.55399 | 25.20688 | 10893 ft | 307 kts | 305° |
| 2026-05-09 17:48 | 36.56748 | 25.18511 | 11173 ft | 326 kts | 305° |
| 2026-05-09 17:48 | 36.58150 | 25.16244 | 11800 ft | 333 kts | 305° |
| 2026-05-09 17:48 | 36.59567 | 25.13950 | 12527 ft | 336 kts | 305° |
| 2026-05-09 17:49 | 36.60997 | 25.11631 | 13290 ft | 339 kts | 304° |
| 2026-05-09 17:49 | 36.62436 | 25.09293 | 14015 ft | 342 kts | 304° |
| 2026-05-09 17:49 | 36.63886 | 25.06932 | 14671 ft | 344 kts | 304° |
| 2026-05-09 17:49 | 36.65341 | 25.04556 | 15323 ft | 347 kts | 304° |
| 2026-05-09 17:50 | 36.66809 | 25.02156 | 15956 ft | 349 kts | 304° |
| 2026-05-09 17:50 | 36.69599 | 24.97172 | 17245 ft | 353 kts | 295° |
| 2026-05-09 17:50 | 36.70441 | 24.94298 | 17822 ft | 355 kts | 284° |
| 2026-05-09 17:51 | 36.70831 | 24.91260 | 17983 ft | 356 kts | 277° |
| 2026-05-09 17:51 | 36.71136 | 24.88114 | 18017 ft | 376 kts | 278° |
| 2026-05-09 17:51 | 36.71463 | 24.84802 | 18020 ft | 394 kts | 278° |
| 2026-05-09 17:51 | 36.71805 | 24.81374 | 18015 ft | 401 kts | 278° |
| 2026-05-09 17:52 | 36.72150 | 24.77921 | 18017 ft | 403 kts | 278° |
| 2026-05-09 17:52 | 36.72685 | 24.74500 | 18010 ft | 403 kts | 288° |
| 2026-05-09 17:52 | 36.73929 | 24.71372 | 18014 ft | 405 kts | 303° |
| 2026-05-09 17:52 | 36.75878 | 24.68829 | 18018 ft | 410 kts | 320° |
| 2026-05-09 17:53 | 36.78277 | 24.66877 | 18016 ft | 412 kts | 324° |
| 2026-05-09 17:53 | 36.80715 | 24.64991 | 18019 ft | 413 kts | 324° |
| 2026-05-09 17:53 | 36.83161 | 24.63113 | 18015 ft | 413 kts | 324° |
| 2026-05-09 17:53 | 36.85609 | 24.61233 | 18015 ft | 413 kts | 324° |
| 2026-05-09 17:54 | 36.88047 | 24.59350 | 18013 ft | 412 kts | 324° |
| 2026-05-09 17:54 | 36.90480 | 24.57464 | 18013 ft | 412 kts | 324° |
| 2026-05-09 17:54 | 36.92920 | 24.55566 | 18014 ft | 412 kts | 324° |
| 2026-05-09 17:54 | 36.95347 | 24.53669 | 18011 ft | 412 kts | 324° |
| 2026-05-09 17:55 | 36.97778 | 24.51769 | 18006 ft | 412 kts | 324° |
| 2026-05-09 17:55 | 37.00178 | 24.49895 | 18003 ft | 411 kts | 324° |
| 2026-05-09 17:55 | 37.02606 | 24.48002 | 18010 ft | 411 kts | 324° |
| 2026-05-09 17:55 | 37.05033 | 24.46106 | 18007 ft | 411 kts | 324° |
| 2026-05-09 17:56 | 37.07459 | 24.44215 | 18008 ft | 411 kts | 325° |
| 2026-05-09 17:56 | 37.10073 | 24.42596 | 18005 ft | 417 kts | 334° |
| 2026-05-09 17:56 | 37.12844 | 24.41617 | 17998 ft | 423 kts | 344° |
| 2026-05-09 17:57 | 37.18617 | 24.40211 | 18003 ft | 422 kts | 343° |
| 2026-05-09 17:57 | 37.21494 | 24.39481 | 18005 ft | 422 kts | 343° |
| 2026-05-09 17:57 | 37.24410 | 24.38751 | 18002 ft | 422 kts | 343° |
| 2026-05-09 17:57 | 37.27284 | 24.38039 | 18003 ft | 421 kts | 343° |
| 2026-05-09 17:58 | 37.30128 | 24.37340 | 18003 ft | 421 kts | 343° |
| 2026-05-09 17:58 | 37.33041 | 24.36627 | 18008 ft | 421 kts | 343° |
| 2026-05-09 17:58 | 37.35881 | 24.35932 | 18006 ft | 421 kts | 343° |
| 2026-05-09 17:58 | 37.38798 | 24.35220 | 18007 ft | 421 kts | 343° |
| 2026-05-09 17:59 | 37.41639 | 24.34525 | 18005 ft | 421 kts | 343° |
| 2026-05-09 17:59 | 37.44554 | 24.33812 | 18007 ft | 421 kts | 343° |
| 2026-05-09 17:59 | 37.47396 | 24.33114 | 18010 ft | 421 kts | 343° |
| 2026-05-09 17:59 | 37.50270 | 24.32405 | 18011 ft | 421 kts | 343° |
| 2026-05-09 18:00 | 37.53144 | 24.31694 | 18008 ft | 421 kts | 343° |
| 2026-05-09 18:00 | 37.56051 | 24.30974 | 17982 ft | 417 kts | 343° |
| 2026-05-09 18:00 | 37.58797 | 24.30305 | 17719 ft | 399 kts | 343° |
| 2026-05-09 18:00 | 37.61496 | 24.29647 | 17467 ft | 392 kts | 343° |
| 2026-05-09 18:01 | 37.64167 | 24.28990 | 17213 ft | 390 kts | 343° |
| 2026-05-09 18:01 | 37.66819 | 24.28332 | 16959 ft | 388 kts | 343° |
| 2026-05-09 18:01 | 37.69470 | 24.27671 | 16707 ft | 387 kts | 343° |
| 2026-05-09 18:01 | 37.72104 | 24.27017 | 16460 ft | 386 kts | 343° |
| 2026-05-09 18:02 | 37.74741 | 24.26364 | 16221 ft | 385 kts | 343° |
| 2026-05-09 18:02 | 37.77351 | 24.25718 | 15973 ft | 377 kts | 344° |
| 2026-05-09 18:02 | 37.79829 | 24.25117 | 15729 ft | 348 kts | 343° |
| 2026-05-09 18:02 | 37.82121 | 24.24566 | 15487 ft | 324 kts | 343° |
| 2026-05-09 18:03 | 37.84262 | 24.24047 | 15246 ft | 303 kts | 343° |
| 2026-05-09 18:03 | 37.86281 | 24.23549 | 15012 ft | 289 kts | 343° |
| 2026-05-09 18:03 | 37.88239 | 24.23056 | 14774 ft | 285 kts | 343° |
| 2026-05-09 18:03 | 37.90179 | 24.22563 | 14542 ft | 284 kts | 343° |
| 2026-05-09 18:04 | 37.92123 | 24.22129 | 14310 ft | 286 kts | 351° |
| 2026-05-09 18:04 | 37.94137 | 24.22377 | 14086 ft | 293 kts | 4° |
| 2026-05-09 18:04 | 37.96138 | 24.22871 | 13865 ft | 293 kts | 5° |
| 2026-05-09 18:04 | 37.98133 | 24.23376 | 13609 ft | 291 kts | 5° |
| 2026-05-09 18:05 | 38.00118 | 24.23870 | 13345 ft | 290 kts | 5° |
| 2026-05-09 18:05 | 38.02097 | 24.24352 | 13102 ft | 289 kts | 5° |
| 2026-05-09 18:05 | 38.04071 | 24.24823 | 12835 ft | 288 kts | 5° |
| 2026-05-09 18:05 | 38.06041 | 24.25281 | 12577 ft | 287 kts | 5° |
| 2026-05-09 18:06 | 38.08017 | 24.25729 | 12183 ft | 289 kts | 5° |
| 2026-05-09 18:06 | 38.09998 | 24.26166 | 11786 ft | 290 kts | 6° |
| 2026-05-09 18:06 | 38.12000 | 24.26588 | 11390 ft | 292 kts | 5° |
| 2026-05-09 18:06 | 38.13985 | 24.26991 | 11007 ft | 293 kts | 5° |
| 2026-05-09 18:07 | 38.16000 | 24.27387 | 10623 ft | 293 kts | 5° |
| 2026-05-09 18:07 | 38.18020 | 24.27770 | 10240 ft | 295 kts | 5° |
| 2026-05-09 18:07 | 38.20060 | 24.28142 | 9740 ft | 298 kts | 5° |
| 2026-05-09 18:07 | 38.22098 | 24.28508 | 9131 ft | 293 kts | 8° |
| 2026-05-09 18:08 | 38.23976 | 24.29441 | 8543 ft | 291 kts | 33° |
| 2026-05-09 18:08 | 38.25364 | 24.31283 | 7973 ft | 289 kts | 53° |
| 2026-05-09 18:08 | 38.26483 | 24.33403 | 7400 ft | 291 kts | 55° |
| 2026-05-09 18:08 | 38.27596 | 24.35588 | 6853 ft | 298 kts | 55° |
| 2026-05-09 18:09 | 38.28879 | 24.37662 | 6288 ft | 301 kts | 44° |
| 2026-05-09 18:09 | 38.30213 | 24.39741 | 5690 ft | 307 kts | 61° |
| 2026-05-09 18:09 | 38.30967 | 24.42303 | 5167 ft | 310 kts | 70° |
| 2026-05-09 18:09 | 38.32025 | 24.44612 | 4989 ft | 297 kts | 45° |
| 2026-05-09 18:10 | 38.33671 | 24.46012 | 4991 ft | 278 kts | 18° |
| 2026-05-09 18:10 | 38.34295 | 24.46233 | 4994 ft | 273 kts | 9° |
| 2026-05-09 18:10 | 38.37247 | 24.45396 | 5003 ft | 267 kts | 322° |
| 2026-05-09 18:10 | 38.38417 | 24.43590 | 4998 ft | 267 kts | 294° |
| 2026-05-09 18:11 | 38.38752 | 24.42084 | 4996 ft | 268 kts | 275° |
| 2026-05-09 18:11 | 38.38499 | 24.39748 | 4999 ft | 269 kts | 247° |
| 2026-05-09 18:11 | 38.37552 | 24.37682 | 5003 ft | 271 kts | 237° |
| 2026-05-09 18:11 | 38.36477 | 24.35711 | 4998 ft | 271 kts | 236° |
| 2026-05-09 18:12 | 38.35385 | 24.33751 | 4999 ft | 271 kts | 236° |
| 2026-05-09 18:12 | 38.34287 | 24.31803 | 5000 ft | 271 kts | 233° |
| 2026-05-09 18:12 | 38.32914 | 24.30166 | 5002 ft | 272 kts | 218° |
| 2026-05-09 18:12 | 38.31388 | 24.28733 | 5007 ft | 273 kts | 217° |
| 2026-05-09 18:13 | 38.29858 | 24.27306 | 5007 ft | 272 kts | 217° |
| 2026-05-09 18:13 | 38.28326 | 24.25885 | 5004 ft | 272 kts | 217° |
| 2026-05-09 18:13 | 38.26793 | 24.24463 | 5005 ft | 273 kts | 217° |
| 2026-05-09 18:13 | 38.25262 | 24.23043 | 4957 ft | 273 kts | 217° |
| 2026-05-09 18:14 | 38.23730 | 24.21622 | 4833 ft | 272 kts | 217° |
| 2026-05-09 18:14 | 38.22203 | 24.20205 | 4709 ft | 271 kts | 217° |
| 2026-05-09 18:14 | 38.20679 | 24.18793 | 4577 ft | 271 kts | 216° |
| 2026-05-09 18:14 | 38.19087 | 24.17519 | 4451 ft | 271 kts | 214° |
| 2026-05-09 18:15 | 38.17540 | 24.16163 | 4319 ft | 270 kts | 218° |
| 2026-05-09 18:15 | 38.16048 | 24.14727 | 4201 ft | 269 kts | 219° |
| 2026-05-09 18:15 | 38.14558 | 24.13285 | 4084 ft | 269 kts | 219° |
| 2026-05-09 18:15 | 38.13064 | 24.11852 | 3993 ft | 268 kts | 218° |
| 2026-05-09 18:16 | 38.11575 | 24.10426 | 4008 ft | 268 kts | 218° |
| 2026-05-09 18:16 | 38.10116 | 24.09031 | 3943 ft | 258 kts | 218° |
| 2026-05-09 18:16 | 38.08694 | 24.07670 | 3688 ft | 254 kts | 218° |
| 2026-05-09 18:16 | 38.07300 | 24.06336 | 3364 ft | 246 kts | 218° |
| 2026-05-09 18:17 | 38.05970 | 24.05066 | 3061 ft | 231 kts | 218° |
| 2026-05-09 18:17 | 38.04744 | 24.03894 | 2770 ft | 210 kts | 218° |
| 2026-05-09 18:17 | 38.03677 | 24.02875 | 2512 ft | 179 kts | 217° |
| 2026-05-09 18:17 | 38.02729 | 24.01970 | 2281 ft | 164 kts | 217° |
| 2026-05-09 18:18 | 38.01851 | 24.01131 | 2070 ft | 152 kts | 217° |
| 2026-05-09 18:18 | 38.01026 | 24.00344 | 1880 ft | 145 kts | 216° |
| 2026-05-09 18:18 | 38.00225 | 23.99579 | 1678 ft | 144 kts | 216° |
| 2026-05-09 18:18 | 37.99441 | 23.98810 | 1445 ft | 143 kts | 217° |
| 2026-05-09 18:19 | 37.98645 | 23.98074 | 1249 ft | 141 kts | 216° |
| 2026-05-09 18:19 | 37.97080 | 23.96583 | 913 ft | 140 kts | 216° |
| 2026-05-09 18:19 | 37.96303 | 23.95842 | 748 ft | 140 kts | 218° |
| 2026-05-09 18:20 | 37.95525 | 23.95105 | 553 ft | 139 kts | 217° |
| 2026-05-09 18:20 | 37.94756 | 23.94367 | 368 ft | 138 kts | 217° |
| 2026-05-09 18:20 | 37.94032 | 23.93677 | 298 ft | 113 kts | 217° |
| 2026-05-09 18:20 | 37.93557 | 23.93223 | 291 ft | 44 kts | 214° |
| 2026-05-09 18:21 | 37.93373 | 23.93146 | 292 ft | 19 kts | 192° |
| 2026-05-09 18:21 | 37.93257 | 23.93170 | 297 ft | 16 kts | 120° |
| 2026-05-09 18:21 | 37.93298 | 23.93263 | 299 ft | 0 kts | 38° |
| 2026-05-09 18:23 | 37.93332 | 23.93296 | 301 ft | 10 kts | 38° |
| 2026-05-09 18:23 | 37.93402 | 23.93365 | 299 ft | 16 kts | 38° |
| 2026-05-09 18:23 | 37.93496 | 23.93462 | 300 ft | 19 kts | 40° |
| 2026-05-09 18:23 | 37.93610 | 23.93561 | 302 ft | 21 kts | 33° |
| 2026-05-09 18:24 | 37.93739 | 23.93681 | 300 ft | 24 kts | 37° |
| 2026-05-09 18:24 | 37.93881 | 23.93821 | 301 ft | 27 kts | 37° |
| 2026-05-09 18:24 | 37.94034 | 23.93964 | 302 ft | 23 kts | 36° |
| 2026-05-09 18:25 | 37.94327 | 23.94239 | 302 ft | 29 kts | 36° |
| 2026-05-09 18:25 | 37.94438 | 23.94343 | 304 ft | 14 kts | 36° |
| 2026-05-09 18:25 | 37.94522 | 23.94420 | 304 ft | 16 kts | 36° |
| 2026-05-09 18:25 | 37.94620 | 23.94510 | 304 ft | 16 kts | 37° |
| 2026-05-09 18:26 | 37.94676 | 23.94630 | 302 ft | 18 kts | 107° |
| 2026-05-09 18:26 | 37.94601 | 23.94772 | 301 ft | 21 kts | 126° |
| 2026-05-09 18:26 | 37.94507 | 23.94934 | 302 ft | 24 kts | 128° |
| 2026-05-09 18:26 | 37.94396 | 23.95112 | 302 ft | 27 kts | 129° |
| 2026-05-09 18:27 | 37.94303 | 23.95260 | 303 ft | 9 kts | 128° |
| 2026-05-09 18:27 | 37.94273 | 23.95309 | 301 ft | 11 kts | 127° |
| 2026-05-09 18:27 | 37.94198 | 23.95336 | 301 ft | 11 kts | 220° |
| 2026-05-09 18:27 | 37.94161 | 23.95297 | 301 ft | 0 kts | 217° |